createdAt,value
2022-11-25T00:09:00.071Z,2.70
2022-11-25T00:18:59.684Z,2.70
2022-11-25T00:28:59.452Z,2.70
2022-11-25T00:38:58.950Z,3.10
2022-11-25T00:48:58.552Z,3.00
2022-11-25T00:58:58.184Z,2.90
2022-11-25T01:08:57.790Z,3.10
2022-11-25T01:18:57.577Z,2.80
2022-11-25T01:28:57.208Z,2.90
2022-11-25T01:38:56.824Z,3.20
2022-11-25T01:48:56.466Z,3.00
2022-11-25T01:58:56.105Z,3.20
2022-11-25T02:08:55.562Z,3.30
2022-11-25T02:18:55.338Z,3.00
2022-11-25T02:28:54.813Z,3.10
2022-11-25T02:38:54.594Z,3.20
2022-11-25T02:49:08.728Z,3.00
2022-11-25T02:58:53.840Z,3.20
2022-11-25T03:08:53.523Z,3.30
2022-11-25T03:18:52.932Z,3.30
2022-11-25T03:28:52.728Z,3.70
2022-11-25T03:38:52.334Z,3.30
2022-11-25T03:48:51.795Z,3.20
2022-11-25T03:58:51.570Z,3.30
2022-11-25T04:08:51.047Z,3.00
2022-11-25T04:18:50.672Z,3.40
2022-11-25T04:28:52.626Z,2.90
2022-11-25T04:38:50.068Z,3.10
2022-11-25T04:48:49.513Z,3.40
2022-11-25T04:58:49.281Z,2.90
2022-11-25T05:08:48.885Z,3.20
2022-11-25T05:18:48.762Z,2.80
2022-11-25T05:28:48.119Z,3.20
2022-11-25T05:38:47.589Z,3.00
2022-11-25T05:48:47.327Z,2.90
2022-11-25T05:58:46.804Z,3.30
2022-11-25T06:08:46.391Z,2.90
2022-11-25T06:18:46.142Z,3.10
2022-11-25T06:28:40.601Z,3.30
2022-11-25T06:38:40.205Z,3.20
2022-11-25T06:48:39.953Z,3.30
2022-11-25T06:58:39.589Z,3.70
2022-11-25T07:08:39.210Z,3.60
2022-11-25T07:18:38.805Z,3.80
2022-11-25T07:28:38.288Z,3.60
2022-11-25T07:38:41.003Z,3.50
2022-11-25T07:48:37.514Z,3.70
2022-11-25T07:58:40.357Z,3.70
2022-11-25T08:08:36.767Z,3.40
2022-11-25T08:18:36.405Z,3.50
2022-11-25T08:28:36.173Z,3.20
2022-11-25T08:38:35.966Z,3.70
2022-11-25T08:48:35.285Z,3.50
2022-11-25T08:58:34.904Z,3.20
2022-11-25T09:08:34.543Z,3.30
2022-11-25T09:18:34.188Z,3.50
2022-11-25T09:28:33.795Z,4.10
2022-11-25T09:38:34.237Z,3.60
2022-11-25T09:48:33.056Z,3.40
2022-11-25T09:58:32.984Z,3.60
2022-11-25T10:08:32.435Z,3.30
2022-11-25T10:18:31.946Z,3.30
2022-11-25T10:28:31.560Z,3.50
2022-11-25T10:38:31.345Z,3.80
2022-11-25T10:48:31.163Z,3.40
2022-11-25T10:58:30.748Z,3.60
2022-11-25T11:08:30.061Z,4.20
2022-11-25T11:18:29.858Z,4.20
2022-11-25T11:28:29.331Z,4.30
2022-11-25T11:38:29.117Z,5.00
2022-11-25T11:48:28.611Z,4.10
2022-11-25T11:58:28.205Z,3.90
2022-11-25T12:08:27.839Z,3.50
2022-11-25T12:18:27.613Z,3.80
2022-11-25T12:28:27.092Z,4.00
2022-11-25T12:38:26.717Z,3.90
2022-11-25T12:48:26.342Z,3.70
2022-11-25T12:58:26.196Z,3.50
2022-11-25T13:08:25.595Z,4.00
2022-11-25T13:18:25.383Z,4.20
2022-11-25T13:28:24.848Z,3.70
2022-11-25T13:38:24.675Z,4.10
2022-11-25T13:48:24.262Z,4.20
2022-11-25T13:58:23.875Z,4.00
2022-11-25T14:08:23.571Z,4.10
2022-11-25T14:18:37.040Z,3.80
2022-11-25T14:28:23.139Z,3.60
2022-11-25T14:38:22.985Z,4.70
2022-11-25T14:48:22.595Z,3.60
2022-11-25T14:58:22.482Z,3.30
2022-11-25T15:08:22.091Z,3.90
2022-11-25T15:18:21.866Z,3.40
2022-11-25T15:28:21.619Z,3.40
2022-11-25T15:38:21.519Z,3.60
2022-11-25T15:48:21.102Z,2.90
2022-11-25T15:58:21.016Z,3.40
2022-11-25T16:08:20.603Z,3.20
2022-11-25T16:18:39.012Z,4.30
2022-11-25T16:28:20.245Z,3.90
2022-11-25T16:38:20.027Z,4.40
2022-11-25T16:48:19.572Z,4.30
2022-11-25T16:58:19.483Z,4.60
2022-11-25T17:08:19.128Z,3.50
2022-11-25T17:18:18.998Z,3.90
2022-11-25T17:28:18.614Z,3.80
2022-11-25T17:38:18.824Z,3.80
2022-11-25T17:48:18.140Z,4.20
2022-11-25T17:58:17.826Z,4.10
2022-11-25T18:08:17.528Z,4.30
2022-11-25T18:18:17.409Z,3.90
2022-11-25T18:28:16.909Z,4.30
2022-11-25T18:38:16.692Z,3.70
2022-11-25T18:48:16.163Z,4.50
2022-11-25T18:58:15.910Z,4.40
2022-11-25T19:08:15.513Z,5.10
2022-11-25T19:18:14.985Z,4.60
2022-11-25T19:28:14.627Z,4.10
2022-11-25T19:38:14.271Z,4.10
2022-11-25T19:48:13.910Z,5.80
2022-11-25T19:58:13.866Z,6.00
2022-11-25T20:08:13.344Z,6.40
2022-11-25T20:18:17.760Z,7.80
2022-11-25T20:28:12.671Z,6.50
2022-11-25T20:38:12.153Z,5.60
2022-11-25T20:48:11.800Z,7.10
2022-11-25T20:58:11.742Z,7.00
2022-11-25T21:08:11.403Z,6.50
2022-11-25T21:18:10.766Z,7.50
2022-11-25T21:28:10.381Z,8.20
2022-11-25T21:38:10.146Z,7.70
2022-11-25T21:48:09.620Z,7.40
2022-11-25T21:58:09.245Z,7.40
2022-11-25T22:08:08.928Z,7.30
2022-11-25T22:18:08.566Z,9.50
2022-11-25T22:28:08.204Z,8.40
2022-11-25T22:38:07.997Z,10.30
2022-11-25T22:48:07.635Z,10.10
2022-11-25T22:58:07.125Z,11.00
2022-11-25T23:08:06.930Z,9.90
2022-11-25T23:18:06.632Z,10.20
2022-11-25T23:28:06.359Z,10.10
2022-11-25T23:38:05.854Z,10.10
2022-11-25T23:48:05.481Z,10.10
2022-11-25T23:58:05.137Z,10.20
